Time;durP1;ratioP1;P1;durP2;ratioP2;P2;SDS_P1;SDS_P2;PMS_P1;PMS_P2;Temp;Humidity;BMP_temperature;BMP_pressure;BME280_temperature;BME280_humidity;BME280_pressure;Samples;Min_cycle;Max_cycle;Signal;HPM_P1;HPM_P2
2023/09/09 00:02:01;;;;;;;10.95;7.25;;;;;;;17.83;100.00;96012.28;4993576;28;24424;-76
2023/09/09 00:04:27;;;;;;;9.05;7.75;;;;;;;17.73;100.00;96006.19;4993516;28;24812;-76
2023/09/09 00:06:55;;;;;;;9.82;7.03;;;;;;;17.73;100.00;96006.19;4992469;28;24445;-76
2023/09/09 00:09:22;;;;;;;8.10;6.63;;;;;;;17.71;100.00;96002.84;4993044;28;24447;-76
2023/09/09 00:11:48;;;;;;;8.93;6.67;;;;;;;17.71;100.00;96004.66;4993264;28;24991;-76
2023/09/09 00:14:15;;;;;;;8.13;6.60;;;;;;;17.74;100.00;96005.22;4993561;28;25006;-76
2023/09/09 00:16:41;;;;;;;8.82;6.90;;;;;;;17.82;100.00;96005.41;4993697;28;24971;-76
2023/09/09 00:19:09;;;;;;;7.43;6.70;;;;;;;17.78;100.00;96000.56;4993593;28;24788;-77
2023/09/09 00:21:38;;;;;;;6.97;6.28;;;;;;;17.83;100.00;96004.44;4992847;28;24780;-77
2023/09/09 00:24:04;;;;;;;7.13;6.43;;;;;;;17.85;100.00;96002.50;4992622;28;24435;-77
2023/09/09 00:26:31;;;;;;;10.98;6.90;;;;;;;17.78;100.00;96000.56;4992393;28;24457;-77
2023/09/09 00:28:58;;;;;;;7.50;6.70;;;;;;;17.67;100.00;96002.31;4993370;28;24437;-77
2023/09/09 00:31:24;;;;;;;7.47;6.35;;;;;;;17.59;100.00;95999.53;4993619;28;24436;-74
2023/09/09 00:33:51;;;;;;;9.85;8.00;;;;;;;17.66;100.00;96002.44;4993455;28;24429;-77
2023/09/09 00:36:18;;;;;;;13.38;9.20;;;;;;;17.58;100.00;96004.91;4992685;28;24416;-77
2023/09/09 00:38:45;;;;;;;10.40;8.57;;;;;;;17.46;100.00;96006.78;4993477;28;24430;-75
2023/09/09 00:41:17;;;;;;;9.73;8.75;;;;;;;17.44;100.00;96002.66;4992680;28;24472;-77
2023/09/09 00:43:44;;;;;;;9.88;8.38;;;;;;;17.39;100.00;95997.78;4993685;28;24457;-75
2023/09/09 00:46:12;;;;;;;10.23;7.20;;;;;;;17.39;100.00;96000.41;4993344;28;24425;-75
2023/09/09 00:48:38;;;;;;;7.53;6.47;;;;;;;17.29;100.00;95997.78;4992357;28;24421;-75
2023/09/09 00:51:06;;;;;;;7.28;6.55;;;;;;;17.17;100.00;95999.66;4992209;28;24428;-75
2023/09/09 00:53:34;;;;;;;7.82;6.93;;;;;;;17.10;100.00;96000.31;4993030;28;24421;-75
2023/09/09 00:56:02;;;;;;;9.35;6.82;;;;;;;17.04;100.00;95998.22;4993032;28;24469;-75
2023/09/09 00:58:31;;;;;;;8.68;7.32;;;;;;;16.90;100.00;95991.53;4992698;28;24420;-75
2023/09/09 01:00:57;;;;;;;11.13;7.55;;;;;;;16.87;100.00;95986.56;4992336;28;25004;-76
2023/09/09 01:03:24;;;;;;;7.30;6.57;;;;;;;16.92;100.00;95984.38;4994582;28;24437;-76
2023/09/09 01:05:51;;;;;;;9.18;7.18;;;;;;;16.99;100.00;95984.72;4996024;28;24425;-76
2023/09/09 01:08:25;;;;;;;9.40;7.90;;;;;;;16.95;100.00;95985.94;4996469;28;24459;-76
2023/09/09 01:10:53;;;;;;;12.48;7.65;;;;;;;16.95;100.00;95991.16;4996226;28;24457;-76
2023/09/09 01:13:19;;;;;;;10.40;8.17;;;;;;;16.95;100.00;95989.38;4996829;28;24424;-76
2023/09/09 01:15:46;;;;;;;9.70;7.82;;;;;;;16.86;100.00;95982.28;4996543;28;24425;-76
2023/09/09 01:18:13;;;;;;;10.43;8.32;;;;;;;16.83;100.00;95993.00;4996042;28;24424;-76
2023/09/09 01:20:43;;;;;;;12.95;8.90;;;;;;;16.88;100.00;95990.84;4996142;28;24438;-76
2023/09/09 01:23:11;;;;;;;10.93;7.88;;;;;;;16.92;100.00;95993.06;4995985;28;24479;-76
2023/09/09 01:25:38;;;;;;;10.95;7.18;;;;;;;16.99;100.00;95998.63;4996248;28;24420;-76
2023/09/09 01:28:06;;;;;;;11.35;7.63;;;;;;;17.06;100.00;95999.75;4996519;28;24447;-76
2023/09/09 01:30:33;;;;;;;10.48;7.70;;;;;;;17.01;100.00;95996.69;4995921;28;24512;-76
2023/09/09 01:32:59;;;;;;;11.48;7.82;;;;;;;16.96;100.00;95996.25;4995425;28;24428;-77
2023/09/09 01:35:26;;;;;;;9.00;7.90;;;;;;;16.99;100.00;95997.78;4995665;28;24432;-76
2023/09/09 01:37:52;;;;;;;8.80;7.60;;;;;;;16.93;100.00;95993.88;4996506;28;24421;-77
2023/09/09 01:40:20;;;;;;;7.93;7.07;;;;;;;16.91;100.00;95990.59;4996237;28;24812;-76
2023/09/09 01:42:47;;;;;;;10.23;7.03;;;;;;;16.88;100.00;95989.06;4995870;28;24504;-76
2023/09/09 01:45:13;;;;;;;8.05;7.10;;;;;;;16.84;100.00;95990.28;4996397;28;24465;-76
2023/09/09 01:47:40;;;;;;;9.70;7.82;;;;;;;16.81;100.00;95990.53;4996401;28;24451;-77
2023/09/09 01:50:08;;;;;;;8.88;7.20;;;;;;;16.86;100.00;95992.75;4995161;28;24436;-77
2023/09/09 01:52:34;;;;;;;7.85;7.05;;;;;;;16.90;100.00;95989.75;4995359;28;24429;-77
2023/09/09 01:55:00;;;;;;;9.70;8.70;;;;;;;16.87;100.00;95990.03;4996002;28;24438;-76
2023/09/09 01:57:29;;;;;;;12.20;8.05;;;;;;;16.72;100.00;95990.44;4996058;28;24421;-77
2023/09/09 01:59:56;;;;;;;9.75;7.80;;;;;;;16.66;100.00;95991.78;4995575;28;24531;-76
2023/09/09 02:02:23;;;;;;;11.43;9.13;;;;;;;16.70;100.00;95988.78;4994848;28;24455;-77
2023/09/09 02:04:49;;;;;;;17.67;11.57;;;;;;;16.69;100.00;95988.91;4995433;28;24440;-77
2023/09/09 02:07:15;;;;;;;14.88;11.15;;;;;;;16.64;100.00;95997.13;4995567;28;25013;-75
2023/09/09 02:09:42;;;;;;;13.70;9.60;;;;;;;16.61;100.00;95993.94;4995588;28;24986;-77
2023/09/09 02:12:09;;;;;;;13.88;10.52;;;;;;;16.61;100.00;95986.94;4995033;28;24421;-77
2023/09/09 02:14:36;;;;;;;13.27;9.77;;;;;;;16.59;100.00;95990.63;4995025;28;24432;-76
2023/09/09 02:17:03;;;;;;;10.77;9.15;;;;;;;16.55;100.00;95991.84;4995347;28;24425;-76
2023/09/09 02:19:30;;;;;;;12.85;10.02;;;;;;;16.56;100.00;95985.66;4994948;28;24519;-76
2023/09/09 02:21:56;;;;;;;12.68;7.80;;;;;;;16.53;100.00;95986.72;4994543;28;24970;-75
2023/09/09 02:24:23;;;;;;;7.97;7.05;;;;;;;16.48;100.00;95991.53;4995041;28;24429;-76
2023/09/09 02:26:50;;;;;;;13.18;7.07;;;;;;;16.50;100.00;95987.00;4995033;28;24444;-76
2023/09/09 02:29:16;;;;;;;8.53;6.87;;;;;;;16.54;100.00;95993.63;4994753;28;24487;-76
2023/09/09 02:31:44;;;;;;;7.23;6.53;;;;;;;16.52;100.00;95974.63;4994038;28;24480;-76
2023/09/09 02:34:11;;;;;;;10.67;7.53;;;;;;;16.39;100.00;95980.06;4994954;28;24776;-76
2023/09/09 02:36:37;;;;;;;10.15;6.88;;;;;;;16.48;100.00;95981.06;4995103;28;24451;-77
2023/09/09 02:39:04;;;;;;;7.65;6.80;;;;;;;16.35;100.00;95983.88;4994758;28;24421;-76
2023/09/09 02:41:30;;;;;;;8.20;6.50;;;;;;;16.38;100.00;95977.56;4994481;28;24428;-76
2023/09/09 02:43:57;;;;;;;8.57;6.87;;;;;;;16.46;100.00;95975.13;4994759;28;24424;-75
2023/09/09 02:46:23;;;;;;;8.10;6.55;;;;;;;16.44;100.00;95979.66;4993922;28;24428;-75
2023/09/09 02:48:51;;;;;;;9.32;6.40;;;;;;;16.44;100.00;95988.34;4994402;28;24444;-76
2023/09/09 02:51:17;;;;;;;9.10;6.43;;;;;;;16.40;100.00;95978.25;4994366;28;24981;-75
2023/09/09 02:53:44;;;;;;;7.85;6.30;;;;;;;16.43;100.00;95984.06;4994980;28;24995;-76
2023/09/09 02:56:11;;;;;;;8.15;7.00;;;;;;;16.53;100.00;95967.59;4993770;28;24948;-76
2023/09/09 02:58:38;;;;;;;7.60;5.85;;;;;;;16.46;100.00;95980.34;4994270;28;24785;-76
2023/09/09 03:01:05;;;;;;;11.55;6.20;;;;;;;16.41;100.00;95983.34;4994101;28;24460;-77
2023/09/09 03:03:32;;;;;;;7.03;6.40;;;;;;;16.44;100.00;95972.66;4994933;28;24488;-77
2023/09/09 03:06:00;;;;;;;7.30;6.10;;;;;;;16.46;100.00;95975.13;4994684;28;24548;-77
2023/09/09 03:08:27;;;;;;;6.60;5.97;;;;;;;16.37;100.00;95981.94;4994359;28;24528;-77
2023/09/09 03:10:54;;;;;;;6.60;5.60;;;;;;;16.31;100.00;95977.22;4993946;28;24432;-77
2023/09/09 03:13:20;;;;;;;5.88;5.35;;;;;;;16.33;100.00;95979.72;4993607;28;24428;-77
2023/09/09 03:15:47;;;;;;;7.75;6.45;;;;;;;16.28;100.00;95980.09;4994266;28;24421;-76
2023/09/09 03:18:13;;;;;;;6.53;5.93;;;;;;;16.20;100.00;95978.13;4994360;28;24433;-76
2023/09/09 03:20:40;;;;;;;6.50;5.22;;;;;;;16.12;100.00;95972.69;4993866;28;24447;-77
2023/09/09 03:23:08;;;;;;;5.97;5.47;;;;;;;16.00;100.00;95965.03;4993963;28;24432;-76
2023/09/09 03:25:34;;;;;;;7.75;5.70;;;;;;;15.94;100.00;95972.41;4992513;28;24440;-76
2023/09/09 03:28:01;;;;;;;6.60;5.57;;;;;;;15.94;100.00;95966.34;4993272;28;24828;-77
2023/09/09 03:30:27;;;;;;;6.03;5.43;;;;;;;15.92;100.00;95974.31;4993348;28;24425;-76
2023/09/09 03:32:54;;;;;;;5.90;5.25;;;;;;;15.85;100.00;95967.91;4993009;28;24428;-77
2023/09/09 03:35:20;;;;;;;6.63;5.88;;;;;;;15.86;100.00;95976.56;4993801;28;24413;-76
2023/09/09 03:37:47;;;;;;;6.10;5.50;;;;;;;15.86;100.00;95977.41;4993239;28;24820;-77
2023/09/09 03:40:15;;;;;;;6.97;5.50;;;;;;;15.88;100.00;95966.84;4993206;28;24821;-76
2023/09/09 03:42:41;;;;;;;5.75;5.18;;;;;;;15.83;100.00;95971.59;4993242;28;24429;-77
2023/09/09 03:45:10;;;;;;;5.57;5.07;;;;;;;15.87;100.00;95976.47;4994233;28;24429;-76
2023/09/09 03:47:36;;;;;;;6.77;6.07;;;;;;;15.93;100.00;95972.53;4993775;28;25062;-76
2023/09/09 03:50:04;;;;;;;5.93;5.32;;;;;;;15.90;100.00;95964.94;4993584;28;24796;-76
2023/09/09 03:52:30;;;;;;;8.15;5.72;;;;;;;15.84;100.00;95973.28;4993246;28;24968;-77
2023/09/09 03:54:57;;;;;;;7.95;5.88;;;;;;;15.83;100.00;95967.19;4992027;28;24417;-76
2023/09/09 03:57:24;;;;;;;8.75;6.47;;;;;;;15.84;100.00;95965.44;4991285;28;24421;-76
2023/09/09 03:59:51;;;;;;;8.32;6.55;;;;;;;15.71;100.00;95970.81;4991643;28;24471;-76
2023/09/09 04:02:17;;;;;;;7.40;6.70;;;;;;;15.69;100.00;95976.16;4991373;28;24424;-76
2023/09/09 04:04:44;;;;;;;7.78;6.32;;;;;;;15.67;100.00;95974.63;4991449;28;24436;-76
2023/09/09 04:07:10;;;;;;;12.27;6.35;;;;;;;15.56;100.00;95974.59;4991307;28;24417;-76
2023/09/09 04:09:40;;;;;;;7.47;6.30;;;;;;;15.61;100.00;95972.44;4991315;28;24440;-76
2023/09/09 04:12:08;;;;;;;7.88;6.30;;;;;;;15.59;100.00;95980.41;4991232;28;24433;-76
2023/09/09 04:14:39;;;;;;;7.80;6.15;;;;;;;15.62;100.00;95980.19;4991288;28;24483;-75
2023/09/09 04:17:05;;;;;;;7.32;5.95;;;;;;;15.59;100.00;95987.41;4991461;28;24440;-76
2023/09/09 04:19:31;;;;;;;6.25;5.72;;;;;;;15.64;100.00;95980.88;4991249;28;24425;-75
2023/09/09 04:21:58;;;;;;;7.72;6.13;;;;;;;15.70;100.00;95971.75;4991188;28;24432;-76
2023/09/09 04:24:25;;;;;;;7.07;6.38;;;;;;;15.70;100.00;95976.97;4991762;28;24479;-76
2023/09/09 04:26:51;;;;;;;8.60;6.28;;;;;;;15.66;100.00;95981.63;4991626;28;24428;-76
2023/09/09 04:29:18;;;;;;;7.32;5.57;;;;;;;15.64;100.00;95983.47;4991010;28;25028;-76
2023/09/09 04:31:46;;;;;;;6.68;6.00;;;;;;;15.65;100.00;95985.19;4991108;28;24432;-76
2023/09/09 04:34:13;;;;;;;5.70;5.20;;;;;;;15.70;100.00;95976.97;4991315;28;24429;-75
2023/09/09 04:36:39;;;;;;;6.30;5.20;;;;;;;15.65;100.00;95981.72;4991521;28;24487;-76
2023/09/09 04:39:06;;;;;;;6.37;5.77;;;;;;;15.67;100.00;95980.66;4994779;28;24424;-75
2023/09/09 04:41:32;;;;;;;9.93;6.53;;;;;;;15.69;100.00;95980.56;4995001;28;24968;-75
2023/09/09 04:43:59;;;;;;;7.57;6.60;;;;;;;15.69;100.00;95977.94;4995414;28;24964;-76
2023/09/09 04:46:25;;;;;;;6.13;5.20;;;;;;;15.69;100.00;95981.38;4995353;28;24436;-75
2023/09/09 04:48:54;;;;;;;6.40;5.68;;;;;;;15.62;100.00;95982.78;4994656;28;24445;-75
2023/09/09 04:51:20;;;;;;;8.75;5.95;;;;;;;15.55;100.00;95981.63;4994368;28;24424;-76
2023/09/09 04:53:46;;;;;;;7.22;6.50;;;;;;;15.40;100.00;95983.66;4995384;28;24416;-76
2023/09/09 04:56:13;;;;;;;7.10;6.28;;;;;;;15.24;100.00;95984.03;4995335;28;24428;-75
2023/09/09 04:58:39;;;;;;;8.85;6.20;;;;;;;15.25;100.00;95990.91;4994890;28;24785;-75
2023/09/09 05:01:06;;;;;;;7.88;7.07;;;;;;;15.32;100.00;95988.66;4994791;28;24983;-75
2023/09/09 05:03:33;;;;;;;7.13;6.30;;;;;;;15.39;100.00;95983.78;4995073;28;25169;-75
2023/09/09 05:06:00;;;;;;;6.97;6.05;;;;;;;15.48;100.00;95986.47;4994633;28;24432;-75
2023/09/09 05:08:27;;;;;;;6.75;6.07;;;;;;;15.43;100.00;95985.19;4994874;28;24464;-75
2023/09/09 05:10:53;;;;;;;7.88;6.75;;;;;;;15.47;100.00;95994.44;4994591;28;24429;-75
2023/09/09 05:13:20;;;;;;;8.60;6.72;;;;;;;15.38;100.00;95995.97;4994623;28;24968;-75
2023/09/09 05:15:48;;;;;;;6.35;5.75;;;;;;;15.30;100.00;95993.16;4994896;28;24439;-74
2023/09/09 05:18:14;;;;;;;6.18;5.57;;;;;;;15.27;100.00;96010.81;4994819;28;24425;-75
2023/09/09 05:20:41;;;;;;;6.35;5.20;;;;;;;15.28;100.00;96002.88;4994384;28;24433;-75
2023/09/09 05:23:09;;;;;;;5.80;5.03;;;;;;;15.27;100.00;96005.59;4994693;28;24509;-75
2023/09/09 05:25:35;;;;;;;6.72;6.03;;;;;;;15.29;100.00;95998.50;4995261;28;24436;-75
2023/09/09 05:28:02;;;;;;;5.80;5.30;;;;;;;15.38;100.00;96002.97;4994981;28;24481;-75
2023/09/09 05:30:28;;;;;;;6.03;5.40;;;;;;;15.46;100.00;96006.66;4995258;28;24777;-76
2023/09/09 05:32:54;;;;;;;6.15;5.55;;;;;;;15.59;100.00;96008.31;4994955;28;24421;-76
2023/09/09 05:35:21;;;;;;;7.75;6.47;;;;;;;15.66;100.00;96001.69;4995095;28;24436;-77
2023/09/09 05:37:47;;;;;;;7.78;6.97;;;;;;;15.65;100.00;96011.31;4994538;28;24421;-76
2023/09/09 05:40:15;;;;;;;8.07;7.25;;;;;;;15.71;100.00;96013.41;4994339;28;24432;-77
2023/09/09 05:42:42;;;;;;;10.70;7.75;;;;;;;15.82;100.00;96007.34;4994104;28;24425;-77
2023/09/09 05:45:11;;;;;;;10.75;8.68;;;;;;;15.94;100.00;96011.59;4994342;28;24413;-77
2023/09/09 05:47:37;;;;;;;11.77;8.73;;;;;;;16.05;100.00;96018.53;4994384;28;24436;-77
2023/09/09 05:50:05;;;;;;;12.90;8.60;;;;;;;16.10;100.00;96012.97;4993429;28;24426;-77
2023/09/09 05:52:32;;;;;;;12.40;8.05;;;;;;;16.16;100.00;96015.88;4992816;28;24433;-76
2023/09/09 05:54:58;;;;;;;10.25;8.60;;;;;;;16.31;100.00;96012.97;4994546;28;24429;-76
2023/09/09 05:57:26;;;;;;;11.85;9.05;;;;;;;16.41;100.00;96019.13;4994398;28;24440;-76
2023/09/09 05:59:52;;;;;;;11.10;8.98;;;;;;;16.52;100.00;96016.47;4993429;28;24417;-76
2023/09/09 06:02:19;;;;;;;14.93;8.00;;;;;;;16.61;100.00;96015.72;4993222;28;24429;-76
2023/09/09 06:04:46;;;;;;;8.85;7.95;;;;;;;16.66;100.00;96024.00;4993585;28;24420;-76
2023/09/09 06:07:12;;;;;;;9.38;8.02;;;;;;;16.73;100.00;96015.66;4993321;28;25028;-76
2023/09/09 06:09:38;;;;;;;10.07;7.93;;;;;;;16.86;100.00;96024.13;4993123;28;24449;-76
2023/09/09 06:12:06;;;;;;;14.47;8.97;;;;;;;17.00;100.00;96025.59;4992979;28;24511;-76
2023/09/09 06:14:33;;;;;;;9.13;8.00;;;;;;;17.06;100.00;96023.31;4993176;28;24420;-76
2023/09/09 06:17:00;;;;;;;8.98;8.00;;;;;;;17.17;100.00;96025.84;4993344;28;24409;-76
2023/09/09 06:19:26;;;;;;;8.48;7.57;;;;;;;17.34;100.00;96039.25;4993245;28;24755;-76
2023/09/09 06:21:53;;;;;;;8.40;7.55;;;;;;;17.52;100.00;96034.25;4988303;28;24999;-76
2023/09/09 06:24:20;;;;;;;9.18;7.80;;;;;;;17.55;100.00;96034.81;4983230;28;24433;-76
2023/09/09 06:26:46;;;;;;;8.27;7.40;;;;;;;17.46;100.00;96032.97;4981792;28;24825;-76
2023/09/09 06:29:13;;;;;;;9.15;6.95;;;;;;;17.52;100.00;96035.06;4981557;28;24559;-76
2023/09/09 06:31:41;;;;;;;11.48;6.95;;;;;;;17.76;100.00;96028.69;4984520;28;24436;-76
2023/09/09 06:34:10;;;;;;;9.47;7.03;;;;;;;17.99;100.00;96038.00;4981890;28;24529;-76
2023/09/09 06:36:36;;;;;;;8.73;7.20;;;;;;;18.13;100.00;96047.22;4983597;28;24514;-75
2023/09/09 06:39:03;;;;;;;10.15;7.75;;;;;;;17.94;100.00;96041.97;4984247;28;24433;-76
2023/09/09 06:41:30;;;;;;;8.25;7.30;;;;;;;17.77;100.00;96046.06;4992342;28;24464;-76
2023/09/09 06:43:56;;;;;;;8.77;6.97;;;;;;;17.75;100.00;96042.72;4984490;28;24436;-76
2023/09/09 06:46:22;;;;;;;8.43;7.55;;;;;;;17.83;100.00;96045.53;4981007;28;24437;-75
2023/09/09 06:48:50;;;;;;;10.98;7.03;;;;;;;17.86;100.00;96043.47;4973160;28;24452;-76
2023/09/09 06:51:17;;;;;;;13.85;7.18;;;;;;;17.96;100.00;96047.91;4972974;28;24422;-76
2023/09/09 06:53:43;;;;;;;8.55;6.82;;;;;;;18.09;100.00;96037.97;4973084;28;24938;-76
2023/09/09 06:56:11;;;;;;;13.23;6.90;;;;;;;18.22;100.00;96043.81;4972928;28;24414;-76
2023/09/09 06:58:37;;;;;;;8.48;7.50;;;;;;;18.30;100.00;96049.19;4973206;28;24418;-77
2023/09/09 07:01:04;;;;;;;9.63;7.30;;;;;;;18.48;100.00;96051.13;4971992;28;24437;-75
2023/09/09 07:03:30;;;;;;;11.63;6.63;;;;;;;18.54;100.00;96051.41;4978315;28;24797;-75
2023/09/09 07:06:00;;;;;;;7.13;6.05;;;;;;;18.66;100.00;96046.84;4980702;28;24464;-75
2023/09/09 07:08:27;;;;;;;10.43;6.13;;;;;;;18.86;100.00;96055.56;4980597;28;24548;-75
2023/09/09 07:10:53;;;;;;;8.02;6.50;;;;;;;18.94;100.00;96054.84;4980178;28;24437;-75
2023/09/09 07:13:21;;;;;;;6.87;6.13;;;;;;;19.44;100.00;96051.97;4975719;28;24433;-75
2023/09/09 07:15:50;;;;;;;7.97;6.50;;;;;;;19.70;100.00;96053.00;4972830;28;24444;-75
2023/09/09 07:18:17;;;;;;;8.23;7.05;;;;;;;19.71;100.00;96057.25;4973601;28;24417;-75
2023/09/09 07:20:46;;;;;;;7.00;6.30;;;;;;;19.79;100.00;96054.72;4989744;28;24459;-76
2023/09/09 07:23:14;;;;;;;9.90;6.90;;;;;;;19.83;100.00;96057.91;4972554;28;24833;-75
2023/09/09 07:25:42;;;;;;;8.13;6.68;;;;;;;19.95;100.00;96059.38;4972490;28;24428;-76
2023/09/09 07:28:08;;;;;;;7.72;6.10;;;;;;;20.23;100.00;96057.53;4972593;28;24429;-76
2023/09/09 07:30:35;;;;;;;8.63;6.93;;;;;;;20.39;100.00;96053.41;4972244;28;24437;-76
2023/09/09 07:33:01;;;;;;;14.90;6.78;;;;;;;20.50;100.00;96058.47;4972150;28;24821;-76
2023/09/09 07:35:28;;;;;;;7.18;6.05;;;;;;;20.75;100.00;96059.50;4972583;28;24417;-76
2023/09/09 07:37:54;;;;;;;8.80;6.50;;;;;;;21.23;100.00;96051.13;4972200;28;24429;-76
2023/09/09 07:40:22;;;;;;;7.80;6.43;;;;;;;21.35;100.00;96054.34;4972338;28;24806;-76
2023/09/09 07:42:49;;;;;;;10.05;6.15;;;;;;;21.79;100.00;96061.34;4972197;28;24413;-77
2023/09/09 07:45:19;;;;;;;7.25;6.53;;;;;;;21.68;100.00;96060.63;4972244;28;24421;-76
2023/09/09 07:47:45;;;;;;;15.70;7.20;;;;;;;21.55;100.00;96054.97;4972217;28;24453;-76
2023/09/09 07:50:12;;;;;;;6.35;5.20;;;;;;;21.92;100.00;96057.28;4971981;28;24449;-76
2023/09/09 07:52:38;;;;;;;8.52;5.88;;;;;;;21.93;100.00;96047.56;4971973;28;24432;-76
2023/09/09 07:55:05;;;;;;;7.97;6.00;;;;;;;22.06;100.00;96068.19;4972186;28;24417;-76
2023/09/09 07:57:33;;;;;;;8.15;6.38;;;;;;;22.11;100.00;96064.09;4972158;28;24429;-76
2023/09/09 08:00:01;;;;;;;7.13;5.78;;;;;;;22.55;100.00;96058.59;4972143;28;24432;-76
2023/09/09 08:02:27;;;;;;;7.38;6.03;;;;;;;22.47;100.00;96061.22;4971993;28;24425;-76
2023/09/09 08:04:54;;;;;;;7.72;6.35;;;;;;;22.58;100.00;96060.06;4971955;28;24425;-76
2023/09/09 08:07:20;;;;;;;13.73;6.95;;;;;;;22.69;100.00;96065.88;4975037;28;24440;-76
2023/09/09 08:09:47;;;;;;;7.93;6.57;;;;;;;22.75;100.00;96067.03;4977017;28;24465;-76
2023/09/09 08:12:13;;;;;;;9.73;6.25;;;;;;;23.26;100.00;96064.25;4974188;28;24437;-76
2023/09/09 08:14:42;;;;;;;9.50;6.60;;;;;;;23.73;100.00;96063.47;4979883;28;24435;-76
2023/09/09 08:17:09;;;;;;;7.50;5.90;;;;;;;23.97;100.00;96070.50;4971706;28;25039;-77
2023/09/09 08:19:35;;;;;;;7.82;6.10;;;;;;;24.32;100.00;96069.97;4971586;28;24965;-76
2023/09/09 08:22:02;;;;;;;8.00;5.53;;;;;;;24.79;100.00;96076.16;4971637;28;24425;-76
2023/09/09 08:24:28;;;;;;;7.20;6.00;;;;;;;24.91;100.00;96073.91;4971444;28;24428;-77
2023/09/09 08:26:54;;;;;;;8.02;5.68;;;;;;;25.27;100.00;96077.59;4971606;28;24972;-76
2023/09/09 08:29:21;;;;;;;6.97;5.85;;;;;;;25.71;100.00;96074.16;4971405;28;25003;-77
2023/09/09 08:31:49;;;;;;;22.75;7.55;;;;;;;25.87;100.00;96077.66;4971454;28;24414;-75
2023/09/09 08:34:15;;;;;;;15.87;7.07;;;;;;;25.68;100.00;96079.03;4971440;28;24469;-77
2023/09/09 08:36:42;;;;;;;9.63;5.90;;;;;;;25.47;100.00;96075.25;4971719;28;24422;-76
2023/09/09 08:39:11;;;;;;;6.43;5.73;;;;;;;25.89;100.00;96067.72;4979468;28;24809;-76
2023/09/09 08:41:49;;;;;;;7.10;5.63;;;;;;;26.37;100.00;96076.88;4981871;28;24434;-75
2023/09/09 08:44:26;;;;;;;8.00;5.32;;;;;;;26.42;100.00;96074.47;4985673;28;24500;-77
2023/09/09 08:46:55;;;;;;;7.80;5.45;;;;;;;26.67;100.00;96076.81;4991121;28;24463;-77
2023/09/09 08:49:24;;;;;;;7.00;4.72;;;;;;;26.49;100.00;96075.41;4990948;28;24479;-76
2023/09/09 08:51:58;;;;;;;5.30;4.60;;;;;;;26.86;100.00;96083.31;4990326;28;24424;-76
2023/09/09 08:54:26;;;;;;;8.63;5.22;;;;;;;27.25;100.00;96069.56;4990578;28;24951;-77
2023/09/09 08:56:53;;;;;;;6.00;4.80;;;;;;;27.35;100.00;96069.25;4990788;28;24424;-76
2023/09/09 08:59:21;;;;;;;6.87;5.10;;;;;;;27.40;100.00;96077.44;4990364;28;24421;-77
2023/09/09 09:01:50;;;;;;;6.20;4.70;;;;;;;27.61;100.00;96069.41;4990016;28;24801;-76
2023/09/09 09:04:18;;;;;;;6.22;4.75;;;;;;;27.36;100.00;96073.53;4990986;28;24420;-76
2023/09/09 09:06:48;;;;;;;5.60;4.70;;;;;;;27.98;100.00;96070.06;4990770;28;24428;-77
2023/09/09 09:09:15;;;;;;;7.85;5.40;;;;;;;27.12;100.00;96067.63;4990481;28;24456;-76
2023/09/09 09:11:43;;;;;;;8.48;4.88;;;;;;;27.22;100.00;96076.13;4990329;28;24792;-76
2023/09/09 09:14:09;;;;;;;10.35;5.15;;;;;;;27.32;100.00;96072.28;4990832;28;24432;-76
2023/09/09 09:16:39;;;;;;;17.35;6.65;;;;;;;27.05;100.00;96074.69;4990612;28;24971;-76
2023/09/09 09:19:06;;;;;;;6.82;4.80;;;;;;;26.46;100.00;96075.75;4990699;28;24449;-76
2023/09/09 09:21:36;;;;;;;7.88;5.00;;;;;;;26.80;100.00;96079.56;4990425;28;24424;-76
2023/09/09 09:24:03;;;;;;;7.23;5.10;;;;;;;26.71;100.00;96080.72;4992019;28;24498;-76
2023/09/09 09:26:30;;;;;;;11.63;4.78;;;;;;;26.73;100.00;96082.16;4994424;28;24466;-76
2023/09/09 09:28:57;;;;;;;5.10;4.57;;;;;;;26.84;100.00;96082.69;4994093;28;24416;-76
2023/09/09 09:31:26;;;;;;;6.55;5.13;;;;;;;27.02;100.00;96064.44;4993845;28;24972;-76
2023/09/09 09:33:53;;;;;;;8.90;4.90;;;;;;;27.52;100.00;96067.13;4994231;28;24829;-76
2023/09/09 09:36:21;;;;;;;8.15;4.68;;;;;;;28.11;100.00;96058.66;4993953;28;24667;-76
2023/09/09 09:38:48;;;;;;;5.35;4.15;;;;;;;28.32;98.05;96066.50;4993665;28;24951;-77
2023/09/09 09:41:15;;;;;;;6.97;4.90;;;;;;;28.57;100.00;96058.81;4993827;28;24409;-76
2023/09/09 09:43:42;;;;;;;7.18;4.38;;;;;;;28.78;100.00;96065.03;4993987;28;24420;-76
2023/09/09 09:46:15;;;;;;;7.70;4.60;;;;;;;28.69;93.86;96059.03;4993881;28;24425;-77
2023/09/09 09:48:42;;;;;;;8.68;4.75;;;;;;;28.09;95.76;96052.69;4993767;28;24964;-76
2023/09/09 09:51:08;;;;;;;8.40;4.60;;;;;;;28.51;100.00;96056.13;4993103;28;24457;-77
2023/09/09 09:53:38;;;;;;;12.07;4.30;;;;;;;28.76;100.00;96056.41;4993868;28;24417;-76
2023/09/09 09:56:06;;;;;;;6.70;4.28;;;;;;;28.72;99.19;96060.50;4993419;28;24972;-76
2023/09/09 09:58:37;;;;;;;8.20;4.65;;;;;;;28.82;96.95;96063.59;4993545;28;24428;-77
2023/09/09 10:01:05;;;;;;;8.00;4.53;;;;;;;28.33;93.50;96054.84;4993264;28;24425;-77
2023/09/09 10:03:42;;;;;;;8.38;4.43;;;;;;;28.56;100.00;96064.38;4993407;28;24432;-76
2023/09/09 10:06:12;;;;;;;7.50;4.07;;;;;;;28.95;97.06;96060.91;4993632;28;24452;-76
2023/09/09 10:08:46;;;;;;;8.10;4.63;;;;;;;29.02;98.58;96055.63;4993316;28;24998;-76
2023/09/09 10:11:18;;;;;;;5.82;4.70;;;;;;;29.28;98.99;96062.81;4992877;28;24460;-77
2023/09/09 10:13:49;;;;;;;6.82;4.55;;;;;;;29.33;97.90;96057.66;4993325;28;24507;-77
2023/09/09 10:16:17;;;;;;;10.38;4.65;;;;;;;29.24;90.83;96051.72;4993182;28;24420;-76
2023/09/09 10:18:47;;;;;;;9.50;4.00;;;;;;;29.25;87.93;96060.53;4993389;28;24944;-77
2023/09/09 10:21:15;;;;;;;6.78;4.47;;;;;;;29.20;80.61;96058.50;4992957;28;24413;-76
2023/09/09 10:23:42;;;;;;;8.82;4.50;;;;;;;29.28;78.09;96052.94;4993118;28;24964;-76
2023/09/09 10:26:11;;;;;;;10.55;5.05;;;;;;;28.82;85.64;96048.41;4993197;28;24778;-76
2023/09/09 10:28:41;;;;;;;7.80;4.53;;;;;;;28.92;81.18;96054.16;4993464;28;24421;-77
2023/09/09 10:31:11;;;;;;;12.85;4.50;;;;;;;29.08;86.99;96042.31;4992735;28;24457;-77
2023/09/09 10:33:40;;;;;;;8.35;4.25;;;;;;;28.35;78.83;96051.97;4993350;28;24421;-76
2023/09/09 10:36:07;;;;;;;6.72;4.22;;;;;;;28.45;79.63;96055.94;4992761;28;24956;-78
2023/09/09 10:38:34;;;;;;;9.02;4.47;;;;;;;28.64;82.36;96050.84;4992868;28;24425;-78
2023/09/09 10:41:02;;;;;;;8.15;4.45;;;;;;;29.18;80.32;96056.06;4992978;28;24456;-78
2023/09/09 10:43:29;;;;;;;9.37;4.17;;;;;;;29.23;79.33;96046.59;4992926;28;24468;-76
2023/09/09 10:45:57;;;;;;;7.65;4.40;;;;;;;28.77;75.85;96048.19;4992914;28;24428;-77
2023/09/09 10:48:27;;;;;;;8.77;4.53;;;;;;;28.46;73.27;96044.25;4992777;28;24413;-76
2023/09/09 10:50:54;;;;;;;8.25;4.32;;;;;;;28.43;72.11;96043.81;4992281;28;24499;-76
2023/09/09 10:53:23;;;;;;;7.65;4.32;;;;;;;28.78;74.45;96049.03;4992515;28;24514;-76
2023/09/09 10:55:52;;;;;;;7.20;4.25;;;;;;;28.83;71.41;96049.22;4992378;28;24768;-76
2023/09/09 10:58:20;;;;;;;7.13;3.90;;;;;;;28.94;71.53;96051.28;4992618;28;24530;-77
2023/09/09 11:00:48;;;;;;;10.77;4.90;;;;;;;29.42;67.20;96051.09;4992253;28;24424;-77
2023/09/09 11:03:18;;;;;;;6.40;4.17;;;;;;;29.01;67.45;96051.31;4992625;28;24429;-77
2023/09/09 11:05:58;;;;;;;8.70;4.38;;;;;;;29.01;70.66;96052.16;4992429;28;24424;-77
2023/09/09 11:08:28;;;;;;;13.73;4.60;;;;;;;29.11;74.41;96049.09;4992215;28;24955;-77
2023/09/09 11:11:08;;;;;;;8.25;4.78;;;;;;;28.98;71.58;96047.22;4992029;28;24448;-76
2023/09/09 11:13:39;;;;;;;8.50;4.20;;;;;;;28.61;71.95;96048.56;4992165;28;24412;-77
2023/09/09 11:16:06;;;;;;;12.60;4.43;;;;;;;28.01;70.61;96048.38;4992472;28;24923;-76
2023/09/09 11:18:34;;;;;;;11.67;4.27;;;;;;;27.80;72.40;96056.44;4992033;28;25038;-77
2023/09/09 11:21:02;;;;;;;265.23;52.20;;;;;;;27.84;78.57;96052.38;4991525;28;24777;-77
2023/09/09 11:23:31;;;;;;;6.15;4.43;;;;;;;28.01;71.22;96043.03;4992144;28;24420;-76
2023/09/09 11:25:58;;;;;;;8.88;4.55;;;;;;;28.04;74.99;96053.31;4999336;23;24489;-76